Time;durP1;ratioP1;P1;durP2;ratioP2;P2;SDS_P1;SDS_P2;PMS_P1;PMS_P2;Temp;Humidity;BMP_temperature;BMP_pressure;BME280_temperature;BME280_humidity;BME280_pressure;Samples;Min_cycle;Max_cycle;Signal;HPM_P1;HPM_P2
2022/01/13 05:03:19;;;;;;;43.75;23.70;;;;;;;-1.31;75.48;102554.12;5602777;31;221042;-57
2022/01/13 05:06:22;;;;;;;45.38;24.52;;;;;;;-1.43;61.23;102554.31;5585167;32;33501;-58
2022/01/13 05:09:24;;;;;;;48.30;24.83;;;;;;;-1.57;60.69;102554.81;5585383;32;34222;-58
2022/01/13 05:12:33;;;;;;;45.60;25.12;;;;;;;-1.50;60.45;102553.25;5584905;31;33754;-57
2022/01/13 05:15:38;;;;;;;47.95;25.62;;;;;;;-1.60;60.36;102559.53;5584848;31;33646;-57
2022/01/13 05:24:59;;;;;;;46.72;25.92;;;;;;;-1.64;60.34;102576.59;5584851;31;33560;-58
2022/01/13 05:28:03;;;;;;;41.00;24.45;;;;;;;-1.70;60.29;102588.50;5584604;32;33657;-57
2022/01/13 05:31:05;;;;;;;46.80;24.12;;;;;;;-1.37;59.88;102586.28;5584252;31;34239;-58
2022/01/13 05:34:07;;;;;;;43.05;24.45;;;;;;;-1.29;59.12;102586.34;5584182;31;34163;-57
2022/01/13 05:37:10;;;;;;;52.35;25.60;;;;;;;-1.40;59.86;102595.28;5581812;31;33887;-58
2022/01/13 05:40:13;;;;;;;52.50;27.80;;;;;;;-1.53;60.12;102600.88;5564210;32;34396;-58
2022/01/13 05:43:15;;;;;;;42.85;23.58;;;;;;;-1.45;61.19;102595.75;5563382;32;33637;-58
2022/01/13 05:46:17;;;;;;;48.22;26.25;;;;;;;-1.63;63.46;102586.94;5564273;32;33862;-58
2022/01/13 05:49:20;;;;;;;47.75;25.67;;;;;;;-1.38;60.31;102592.53;5564342;32;33794;-57
2022/01/13 05:52:22;;;;;;;47.58;24.73;;;;;;;-1.28;76.15;102585.41;5563361;32;33065;-57
2022/01/13 05:55:25;;;;;;;46.67;25.40;;;;;;;-1.30;60.83;102593.44;5564389;32;33539;-58
2022/01/13 05:58:27;;;;;;;49.13;26.27;;;;;;;-1.53;60.82;102577.22;5564087;32;34292;-57
2022/01/13 06:01:30;;;;;;;46.22;24.60;;;;;;;-1.53;60.58;102587.72;5578507;31;33690;-57
2022/01/13 06:04:33;;;;;;;57.25;27.08;;;;;;;-1.53;60.74;102571.94;5582972;31;33690;-57
2022/01/13 06:07:35;;;;;;;52.08;27.00;;;;;;;-1.25;71.28;102585.13;5583581;32;33769;-57
2022/01/13 06:10:43;;;;;;;50.03;26.42;;;;;;;-1.06;60.22;102581.50;5583470;32;33589;-57
2022/01/13 06:13:45;;;;;;;;;;;;;;;-1.15;60.74;102583.25;5575016;32;34263;-58
2022/01/13 06:16:47;;;;;;;52.28;26.15;;;;;;;-1.34;61.33;102578.09;5564748;32;34583;-58
2022/01/13 06:19:50;;;;;;;54.05;27.50;;;;;;;-1.21;61.22;102570.69;5551006;32;33795;-58
2022/01/13 06:22:53;;;;;;;60.50;28.30;;;;;;;-1.25;60.28;102577.22;5549365;32;33341;-57
2022/01/13 06:25:57;;;;;;;50.05;26.98;;;;;;;-1.36;60.07;102566.88;5550863;32;34340;-57
2022/01/13 06:29:00;;;;;;;43.30;26.15;;;;;;;-1.25;60.16;102558.78;5551042;32;34357;-58
2022/01/13 06:32:02;;;;;;;51.25;26.75;;;;;;;-1.16;60.21;102560.50;5550213;32;33802;-57
2022/01/13 06:35:06;;;;;;;47.88;26.15;;;;;;;-1.20;67.97;102565.25;5550112;32;33319;-57
2022/01/13 06:38:12;;;;;;;51.27;29.13;;;;;;;-1.19;60.29;102569.56;5550465;32;34219;-58
2022/01/13 06:41:16;;;;;;;49.92;27.02;;;;;;;-1.19;60.28;102581.91;5550562;32;34284;-57
2022/01/13 06:44:18;;;;;;;53.25;27.52;;;;;;;-1.20;60.82;102583.66;5563876;32;33874;-57
2022/01/13 06:47:20;;;;;;;53.55;28.05;;;;;;;-1.07;59.98;102572.78;5569947;32;33527;-57
2022/01/13 06:50:22;;;;;;;50.33;28.20;;;;;;;-1.03;59.97;102570.69;5570027;32;34236;-57
2022/01/13 06:53:25;;;;;;;54.67;29.58;;;;;;;-1.04;60.09;102571.66;5569735;32;34366;-57
2022/01/13 06:56:27;;;;;;;50.55;28.62;;;;;;;-1.08;61.12;102570.31;5569558;32;34296;-57
2022/01/13 06:59:30;;;;;;;55.30;29.25;;;;;;;-1.14;61.09;102577.00;5569837;32;33778;-57
2022/01/13 07:02:33;;;;;;;52.08;30.85;;;;;;;-1.03;60.20;102576.78;5569671;32;33398;-58
2022/01/13 07:05:36;;;;;;;52.50;28.15;;;;;;;-1.09;59.89;102564.22;5569018;32;33392;-58
2022/01/13 07:08:38;;;;;;;55.12;29.77;;;;;;;-1.12;60.95;102561.87;5569551;32;33973;-57
2022/01/13 07:11:41;;;;;;;53.40;29.45;;;;;;;-0.98;60.11;102574.53;5569839;32;33653;-58
2022/01/13 07:14:44;;;;;;;50.63;27.27;;;;;;;-0.98;60.22;102563.19;5569166;32;34515;-57
2022/01/13 07:17:47;;;;;;;48.63;26.95;;;;;;;-0.98;60.82;102577.16;5569530;32;33621;-57
2022/01/13 07:20:49;;;;;;;53.25;27.20;;;;;;;-0.92;62.96;102572.28;5569580;32;34303;-58
2022/01/13 07:23:52;;;;;;;47.85;26.90;;;;;;;-0.93;60.53;102584.59;5569218;32;34855;-58
2022/01/13 07:26:54;;;;;;;47.50;27.10;;;;;;;-0.75;59.60;102580.16;5569393;32;34401;-57
2022/01/13 07:29:57;;;;;;;49.70;26.10;;;;;;;-0.75;66.49;102581.97;5569732;32;34386;-57
2022/01/13 07:32:59;;;;;;;54.38;27.02;;;;;;;-0.75;66.47;102585.44;5569292;32;34226;-57
2022/01/13 07:36:02;;;;;;;48.97;27.23;;;;;;;-0.89;64.86;102596.50;5569647;32;34391;-58
2022/01/13 07:39:05;;;;;;;49.25;28.70;;;;;;;-0.65;60.33;102590.62;5569603;32;33596;-58
2022/01/13 07:42:08;;;;;;;55.58;28.52;;;;;;;-0.53;59.78;102588.56;5569857;32;34341;-57
2022/01/13 07:45:11;;;;;;;54.95;30.70;;;;;;;-0.64;61.02;102594.09;5569762;32;33598;-58
2022/01/13 07:48:14;;;;;;;58.60;31.80;;;;;;;-0.50;61.21;102601.44;5569995;32;33905;-58
2022/01/13 07:51:18;;;;;;;59.95;33.08;;;;;;;-0.42;61.48;102595.44;5569675;32;34545;-58
2022/01/13 07:54:21;;;;;;;67.12;36.90;;;;;;;-0.31;61.68;102600.44;5568940;32;33584;-58
2022/01/13 07:57:29;;;;;;;63.58;36.83;;;;;;;-0.25;62.19;102599.84;5569481;32;33169;-57
2022/01/13 08:00:32;;;;;;;69.28;36.83;;;;;;;-0.17;69.45;102607.78;5569052;32;33697;-57
2022/01/13 08:03:34;;;;;;;64.03;37.03;;;;;;;-0.20;64.18;102599.34;5568257;32;34307;-57
2022/01/13 08:06:37;;;;;;;65.55;36.28;;;;;;;0.04;63.10;102591.63;5570084;32;34062;-57
2022/01/13 08:09:39;;;;;;;69.47;38.30;;;;;;;-0.11;62.92;102606.34;5569793;32;33720;-58
2022/01/13 08:12:42;;;;;;;66.37;38.38;;;;;;;0.20;68.92;102604.09;5569901;32;33500;-57
2022/01/13 08:15:44;;;;;;;77.90;39.45;;;;;;;0.25;64.93;102606.22;5569847;32;33736;-58
2022/01/13 08:22:07;;;;;;;66.10;38.25;;;;;;;0.28;61.58;102604.09;5570087;32;33719;-58
2022/01/13 08:25:09;;;;;;;76.50;40.00;;;;;;;0.45;66.78;102602.38;5568722;32;32675;-58
2022/01/13 08:28:12;;;;;;;72.85;39.58;;;;;;;0.41;61.41;102612.41;5569612;32;34243;-58
2022/01/13 08:31:14;;;;;;;69.90;40.45;;;;;;;0.72;62.88;102614.50;5569647;32;33788;-58
2022/01/13 08:34:17;;;;;;;69.75;40.30;;;;;;;0.89;64.57;102605.66;5569137;32;33226;-57
2022/01/13 08:37:19;;;;;;;69.50;38.30;;;;;;;0.88;61.21;102605.81;5569135;31;33188;-58
2022/01/13 08:40:22;;;;;;;67.32;35.03;;;;;;;0.86;61.09;102602.50;5569584;32;33800;-58
2022/01/13 08:43:27;;;;;;;70.93;39.55;;;;;;;0.89;65.66;102599.53;5568813;32;34293;-58
2022/01/13 08:46:30;;;;;;;76.62;37.88;;;;;;;0.93;61.90;102606.19;5569095;32;34486;-58
2022/01/13 08:49:36;;;;;;;74.65;38.85;;;;;;;0.90;61.13;102601.22;5569184;32;34190;-58
2022/01/13 08:52:39;;;;;;;70.03;36.58;;;;;;;0.95;60.69;102596.25;5568445;32;34461;-58
2022/01/13 08:55:41;;;;;;;66.75;38.85;;;;;;;1.17;66.06;102592.19;5569011;32;34230;-58
2022/01/13 08:58:43;;;;;;;73.20;38.17;;;;;;;1.25;62.11;102589.53;5568798;32;33534;-58
2022/01/13 09:01:45;;;;;;;63.65;36.47;;;;;;;2.10;69.25;102600.53;5567476;32;33687;-58
2022/01/13 09:04:50;;;;;;;68.82;39.63;;;;;;;2.11;66.22;102601.34;5568773;32;34097;-58
2022/01/13 09:07:52;;;;;;;62.60;37.33;;;;;;;1.78;60.16;102590.84;5568635;32;33742;-58
2022/01/13 09:10:55;;;;;;;65.55;36.85;;;;;;;1.79;65.52;102591.69;5569049;32;33926;-58
2022/01/13 09:13:58;;;;;;;74.50;39.03;;;;;;;1.94;72.16;102602.38;5568053;32;34267;-58
2022/01/13 09:17:03;;;;;;;69.30;36.88;;;;;;;2.14;62.09;102590.44;5568332;32;33654;-58
2022/01/13 09:20:06;;;;;;;72.28;38.30;;;;;;;2.10;61.41;102586.47;5568199;32;33570;-58
2022/01/13 09:23:09;;;;;;;69.35;38.90;;;;;;;2.28;63.25;102588.91;5568242;32;34128;-58
2022/01/13 09:26:11;;;;;;;70.18;39.53;;;;;;;2.46;62.59;102589.50;5567763;32;34239;-58
2022/01/13 09:29:15;;;;;;;65.60;36.95;;;;;;;2.46;61.42;102586.84;5568355;32;34391;-58
2022/01/13 09:32:17;;;;;;;62.42;35.70;;;;;;;2.59;69.16;102594.25;5567719;32;33522;-58
2022/01/13 09:35:19;;;;;;;71.28;37.50;;;;;;;2.81;61.05;102593.47;5558050;32;33816;-58
2022/01/13 09:38:22;;;;;;;85.22;36.42;;;;;;;2.77;62.96;102601.94;5558984;32;34578;-58
2022/01/13 09:41:27;;;;;;;65.68;37.03;;;;;;;3.21;70.72;102601.31;5567751;32;33620;-58
2022/01/13 09:44:29;;;;;;;73.70;39.25;;;;;;;3.29;67.20;102602.09;5552675;32;33613;-57
2022/01/13 09:47:33;;;;;;;68.65;37.55;;;;;;;3.41;59.04;102591.06;5559343;32;33691;-58
2022/01/13 09:50:35;;;;;;;67.40;35.38;;;;;;;3.23;59.88;102591.38;5555030;32;33212;-58
2022/01/13 09:53:37;;;;;;;61.20;35.72;;;;;;;3.27;60.31;102582.06;5556605;32;33563;-58
2022/01/13 09:56:40;;;;;;;60.78;31.98;;;;;;;3.25;59.83;102574.28;5561072;32;34536;-58
2022/01/13 09:59:42;;;;;;;63.90;35.95;;;;;;;3.53;70.61;102565.78;5560162;32;33628;-58
2022/01/13 10:02:45;;;;;;;63.92;35.05;;;;;;;3.54;59.78;102564.75;5570710;32;33822;-58
2022/01/13 10:05:54;;;;;;;63.00;35.75;;;;;;;4.02;69.05;102564.47;5551301;32;33616;-57
2022/01/13 10:08:58;;;;;;;69.85;35.15;;;;;;;4.67;63.57;102564.50;5552292;32;33757;-57
2022/01/13 10:12:06;;;;;;;60.38;34.47;;;;;;;4.43;68.05;102557.66;5559070;32;33786;-58
2022/01/13 10:18:42;;;;;;;69.47;36.83;;;;;;;5.05;70.71;102543.00;5565697;32;34496;-58
2022/01/13 10:21:56;;;;;;;56.70;32.65;;;;;;;5.47;69.29;102541.31;5563776;32;33738;-57
2022/01/13 10:24:59;;;;;;;49.72;31.12;;;;;;;5.76;65.31;102532.31;5551324;32;33380;-58
2022/01/13 10:28:12;;;;;;;52.42;30.50;;;;;;;5.55;64.24;102527.84;5563230;32;33890;-58
2022/01/13 10:31:15;;;;;;;60.75;32.83;;;;;;;5.37;61.57;102528.34;5563741;32;34057;-58
2022/01/13 10:34:26;;;;;;;56.28;30.85;;;;;;;5.01;57.17;102523.12;5568576;32;34784;-58
2022/01/13 10:37:39;;;;;;;53.80;29.77;;;;;;;5.01;57.34;102509.84;5560348;32;34513;-58
2022/01/13 10:40:42;;;;;;;57.50;31.35;;;;;;;5.19;64.63;102510.19;5557895;32;33803;-58
2022/01/13 10:43:45;;;;;;;31.08;19.60;;;;;;;5.03;58.62;102504.31;5570686;32;33898;-58
2022/01/13 10:47:01;;;;;;;40.30;20.95;;;;;;;5.00;59.51;102491.41;5561633;32;34382;-58
2022/01/13 10:50:09;;;;;;;37.45;21.67;;;;;;;5.57;69.48;102503.72;5563326;32;33610;-58
2022/01/13 10:53:22;;;;;;;38.30;21.83;;;;;;;5.35;57.41;102487.00;5568038;32;33198;-58
2022/01/13 10:56:24;;;;;;;31.75;18.15;;;;;;;5.02;58.36;102502.69;5570152;32;34014;-58
2022/01/13 10:59:35;;;;;;;32.05;16.52;;;;;;;4.99;59.16;102498.56;5563615;32;33816;-58
2022/01/13 11:02:38;;;;;;;33.28;18.45;;;;;;;5.07;61.99;102494.97;5569662;32;34184;-58
2022/01/13 11:05:48;;;;;;;33.65;20.33;;;;;;;5.88;63.82;102493.47;5568525;32;33754;-58
2022/01/13 11:08:50;;;;;;;36.28;20.77;;;;;;;5.78;61.12;102489.53;5565212;32;33802;-58
2022/01/13 11:11:59;;;;;;;30.23;16.15;;;;;;;6.04;56.01;102481.69;5555625;32;33447;-58
2022/01/13 11:15:07;;;;;;;24.67;15.63;;;;;;;5.68;57.09;102486.41;5565421;32;33755;-58
2022/01/13 11:18:16;;;;;;;29.15;16.23;;;;;;;5.41;58.37;102480.91;5565424;32;33870;-58
2022/01/13 11:21:20;;;;;;;28.33;15.93;;;;;;;5.34;58.72;102475.53;5560461;32;34344;-58
2022/01/13 11:24:23;;;;;;;27.58;16.02;;;;;;;5.33;58.23;102478.38;5561524;32;33596;-58
2022/01/13 11:27:26;;;;;;;30.73;15.77;;;;;;;5.09;58.54;102464.50;5558596;32;34361;-57
2022/01/13 11:30:28;;;;;;;28.45;16.30;;;;;;;5.10;58.80;102475.94;5552731;32;33738;-58
2022/01/13 11:33:30;;;;;;;29.25;16.62;;;;;;;5.21;58.89;102471.97;5559783;32;33504;-57
2022/01/13 11:36:33;;;;;;;30.05;17.42;;;;;;;5.07;59.32;102461.22;5560030;32;34758;-58
2022/01/13 11:39:41;;;;;;;33.63;18.73;;;;;;;4.91;60.10;102466.81;5556261;32;33880;-58
2022/01/13 11:42:46;;;;;;;32.90;18.10;;;;;;;4.93;60.16;102464.75;5568952;32;32204;-58
2022/01/13 11:45:48;;;;;;;30.70;18.23;;;;;;;5.02;60.45;102473.44;5559292;32;33220;-58
2022/01/13 11:49:23;;;;;;;31.08;18.48;;;;;;;5.13;61.54;102478.22;5567965;32;33721;-58
2022/01/13 11:52:44;;;;;;;29.25;17.00;;;;;;;5.07;59.19;102479.00;5564334;32;33607;-58
2022/01/13 11:55:55;;;;;;;29.02;17.45;;;;;;;4.95;59.80;102460.09;5569906;32;33418;-58
2022/01/13 11:59:17;;;;;;;27.80;16.02;;;;;;;4.96;59.29;102453.75;5570675;32;33623;-58
2022/01/13 12:02:28;;;;;;;25.75;15.88;;;;;;;4.94;59.73;102467.25;5567661;32;34290;-58
2022/01/13 12:05:42;;;;;;;26.90;16.27;;;;;;;4.92;60.78;102476.41;5558047;32;34445;-58
2022/01/13 12:08:51;;;;;;;26.65;15.85;;;;;;;5.00;60.49;102447.06;5557959;32;34065;-58
2022/01/13 12:11:55;;;;;;;27.40;16.15;;;;;;;5.17;59.74;102456.41;5568989;32;34493;-58
2022/01/13 12:15:18;;;;;;;24.48;15.50;;;;;;;5.24;59.07;102467.06;5568729;32;33617;-58
2022/01/13 12:18:48;;;;;;;22.10;13.45;;;;;;;5.40;61.07;102463.31;5559380;32;33763;-58
2022/01/13 12:22:01;;;;;;;23.92;14.85;;;;;;;5.12;59.21;102469.44;5563531;32;34221;-58
2022/01/13 12:25:06;;;;;;;24.83;14.52;;;;;;;4.84;61.00;102465.94;5549341;32;33877;-58
2022/01/13 12:28:20;;;;;;;26.17;15.32;;;;;;;4.88;60.48;102452.06;5562725;32;33419;-58
2022/01/13 12:31:27;;;;;;;26.10;15.23;;;;;;;4.83;61.44;102449.12;5568128;32;34511;-58
2022/01/13 12:34:29;;;;;;;28.30;16.15;;;;;;;4.64;60.99;102452.47;5569503;32;33634;-58
2022/01/13 12:37:32;;;;;;;26.65;15.32;;;;;;;4.60;62.08;102440.53;5569275;31;33588;-58
2022/01/13 12:41:02;;;;;;;33.55;16.08;;;;;;;4.47;61.95;102426.16;5561638;32;33756;-58
2022/01/13 12:44:20;;;;;;;27.95;17.12;;;;;;;4.57;62.35;102425.84;5555858;32;34389;-58
2022/01/13 12:47:23;;;;;;;31.42;17.50;;;;;;;4.64;62.07;102416.09;5560568;32;34284;-58
2022/01/13 12:50:36;;;;;;;31.87;19.12;;;;;;;4.75;61.99;102405.94;5560027;32;33741;-58
2022/01/13 12:53:39;;;;;;;31.08;19.00;;;;;;;4.85;60.87;102417.06;5557715;32;33560;-58
2022/01/13 12:56:41;;;;;;;32.63;18.55;;;;;;;4.76;61.36;102442.12;5563357;32;33772;-57
2022/01/13 12:59:45;;;;;;;29.10;18.35;;;;;;;4.80;61.35;102456.69;5559069;32;33288;-58
2022/01/13 13:02:56;;;;;;;28.67;17.30;;;;;;;4.92;60.78;102463.13;5548791;32;33339;-58
2022/01/13 13:06:07;;;;;;;32.60;18.37;;;;;;;4.68;62.23;102474.97;5554966;32;34681;-58
2022/01/13 13:09:13;;;;;;;31.33;17.02;;;;;;;4.51;61.78;102474.41;5560012;32;33852;-58
2022/01/13 13:12:25;;;;;;;29.75;17.35;;;;;;;4.65;61.73;102460.22;5567138;32;33824;-58
2022/01/13 13:18:32;;;;;;;26.62;17.52;;;;;;;5.19;61.55;102451.69;5554036;32;34374;-58
2022/01/13 13:21:34;;;;;;;29.23;16.98;;;;;;;5.17;65.38;102435.12;5550939;32;33758;-58
2022/01/13 13:24:40;;;;;;;27.85;16.12;;;;;;;5.25;59.59;102438.62;5569104;32;34301;-58
2022/01/13 13:27:42;;;;;;;29.30;17.20;;;;;;;4.90;61.13;102433.25;5571472;32;33364;-58
2022/01/13 13:30:46;;;;;;;26.83;16.20;;;;;;;5.04;60.89;102418.25;5557328;32;34058;-58
2022/01/13 13:34:13;;;;;;;26.10;16.08;;;;;;;5.12;60.66;102418.91;5567738;32;33931;-58
2022/01/13 13:37:17;;;;;;;25.00;15.95;;;;;;;5.18;60.60;102409.34;5569653;32;33954;-58
2022/01/13 13:40:23;;;;;;;24.80;16.67;;;;;;;5.34;60.26;102405.56;5563126;32;33709;-58
2022/01/13 13:43:32;;;;;;;27.87;16.08;;;;;;;5.14;60.31;102405.44;5570050;32;34840;-58
2022/01/13 13:46:35;;;;;;;26.17;16.90;;;;;;;5.15;60.17;102407.91;5558181;32;33515;-58
2022/01/13 13:49:38;;;;;;;26.50;15.98;;;;;;;4.85;60.18;102422.38;5566277;32;34334;-58
2022/01/13 13:52:41;;;;;;;26.40;16.50;;;;;;;5.01;60.15;102408.81;5566809;32;33552;-58
2022/01/13 13:55:58;;;;;;;28.95;16.55;;;;;;;5.12;61.63;102410.13;5554308;32;34473;-58
2022/01/13 13:59:04;;;;;;;26.70;16.75;;;;;;;5.01;60.33;102408.00;5550842;32;33969;-58
2022/01/13 14:02:12;;;;;;;27.87;16.70;;;;;;;4.98;60.53;102422.50;5563297;32;33792;-58
2022/01/13 14:05:24;;;;;;;27.17;17.50;;;;;;;4.88;61.10;102427.31;5568296;32;33484;-58
2022/01/13 14:08:29;;;;;;;30.00;17.60;;;;;;;4.85;61.75;102420.56;5564769;32;31691;-58
2022/01/13 14:11:42;;;;;;;28.90;17.70;;;;;;;5.03;60.38;102424.56;5571477;32;33734;-58
2022/01/13 14:14:44;;;;;;;31.40;18.35;;;;;;;5.00;60.60;102419.63;5558196;32;33822;-58
2022/01/13 14:17:57;;;;;;;29.25;18.00;;;;;;;4.93;60.67;102415.12;5569512;32;34294;-58
2022/01/13 14:21:00;;;;;;;28.12;17.85;;;;;;;5.12;61.41;102416.25;5568549;32;34984;-58
2022/01/13 14:24:02;;;;;;;28.92;17.98;;;;;;;5.06;60.64;102397.59;5563173;32;33723;-58
2022/01/13 14:27:13;;;;;;;29.55;18.10;;;;;;;5.06;62.06;102397.59;5552475;32;33857;-58
2022/01/13 14:30:30;;;;;;;31.92;19.00;;;;;;;5.29;60.10;102402.66;5558763;32;33848;-58
2022/01/13 14:33:34;;;;;;;34.20;18.55;;;;;;;5.35;59.91;102400.03;5564695;32;33777;-58
2022/01/13 14:36:38;;;;;;;33.75;17.35;;;;;;;5.25;60.09;102393.44;5563654;32;33619;-58
2022/01/13 14:39:40;;;;;;;29.42;17.87;;;;;;;5.19;60.63;102390.53;5570070;32;33609;-58
2022/01/13 14:42:43;;;;;;;31.70;19.20;;;;;;;5.23;60.33;102401.62;5566961;32;33834;-58
2022/01/13 14:45:47;;;;;;;29.20;17.23;;;;;;;5.25;61.27;102401.41;5561438;32;33707;-58
2022/01/13 14:48:49;;;;;;;30.17;18.48;;;;;;;5.30;61.82;102399.00;5564905;32;34096;-58
2022/01/13 14:51:52;;;;;;;32.38;17.65;;;;;;;5.06;62.00;102409.03;5570196;32;33835;-58
2022/01/13 14:54:55;;;;;;;39.13;18.45;;;;;;;5.06;61.66;102408.22;5557862;32;33802;-58
2022/01/13 14:57:57;;;;;;;31.02;18.33;;;;;;;5.07;61.15;102400.09;5554735;32;34375;-58
2022/01/13 15:01:04;;;;;;;31.52;18.20;;;;;;;4.97;61.28;102396.09;5552948;32;34488;-58
2022/01/13 15:04:07;;;;;;;31.98;17.50;;;;;;;5.10;61.73;102385.56;5550741;32;34458;-58
2022/01/13 15:07:09;;;;;;;28.67;16.87;;;;;;;5.24;61.35;102384.66;5569487;32;33976;-58
2022/01/13 15:10:11;;;;;;;29.60;18.00;;;;;;;5.19;60.91;102371.09;5558329;32;33715;-57
2022/01/13 15:13:14;;;;;;;27.08;16.30;;;;;;;5.17;61.27;102366.00;5555461;32;33677;-58
2022/01/13 15:16:18;;;;;;;27.95;17.95;;;;;;;5.16;61.72;102367.00;5564677;32;33775;-58
2022/01/13 15:19:20;;;;;;;27.90;17.92;;;;;;;5.29;61.02;102370.75;5559947;32;33402;-58
2022/01/13 15:22:23;;;;;;;27.00;17.55;;;;;;;5.36;60.43;102352.97;5551092;32;34434;-58
2022/01/13 15:25:26;;;;;;;26.17;17.08;;;;;;;5.46;65.20;102360.59;5564979;32;34582;-57
2022/01/13 15:28:28;;;;;;;29.87;17.50;;;;;;;5.14;62.26;102357.59;5556151;32;35940;-58
2022/01/13 15:31:31;;;;;;;27.40;16.58;;;;;;;5.22;62.05;102346.78;5561003;32;32475;-58
2022/01/13 15:34:33;;;;;;;28.27;16.98;;;;;;;5.20;61.45;102351.50;5557550;32;33714;-58
2022/01/13 15:37:37;;;;;;;36.38;16.98;;;;;;;5.15;61.93;102349.41;5557102;32;34484;-58
2022/01/13 15:40:39;;;;;;;32.80;18.27;;;;;;;5.25;62.17;102350.91;5568393;32;33888;-58
2022/01/13 15:43:41;;;;;;;29.08;17.60;;;;;;;5.31;60.94;102350.94;5566995;32;34032;-59
2022/01/13 15:46:44;;;;;;;31.75;17.90;;;;;;;5.21;61.23;102352.31;5561678;32;34350;-58
2022/01/13 15:49:46;;;;;;;26.25;17.20;;;;;;;5.18;61.08;102356.16;5562354;32;33648;-58
2022/01/13 15:52:49;;;;;;;32.58;18.80;;;;;;;5.17;61.98;102346.56;5563756;32;34271;-58
2022/01/13 15:55:53;;;;;;;28.80;18.55;;;;;;;5.31;60.62;102336.81;5568444;32;34334;-58
2022/01/13 15:58:55;;;;;;;32.03;18.95;;;;;;;5.23;61.50;102334.31;5570893;32;34072;-58
2022/01/13 16:01:58;;;;;;;31.83;19.08;;;;;;;5.21;61.14;102331.84;5567863;32;33930;-58
2022/01/13 16:05:00;;;;;;;30.95;19.58;;;;;;;5.24;60.96;102334.13;5566920;32;33627;-58
2022/01/13 16:08:03;;;;;;;32.38;20.30;;;;;;;5.13;62.29;102326.69;5564498;32;34363;-58
2022/01/13 16:11:08;;;;;;;30.00;20.40;;;;;;;5.13;61.21;102319.53;5570415;32;34445;-58
2022/01/13 16:14:13;;;;;;;31.98;20.23;;;;;;;5.02;61.79;102314.75;5563295;32;33959;-58
2022/01/13 16:17:15;;;;;;;41.45;21.10;;;;;;;5.25;71.07;102305.69;5569840;32;34538;-58
2022/01/13 16:20:19;;;;;;;32.22;20.45;;;;;;;5.09;61.81;102302.31;5568786;32;33767;-58
2022/01/13 16:23:22;;;;;;;32.03;19.65;;;;;;;5.12;64.47;102299.28;5570424;32;34688;-58
2022/01/13 16:26:25;;;;;;;31.62;20.70;;;;;;;4.98;62.41;102286.94;5555759;32;33728;-58
2022/01/13 16:29:55;;;;;;;33.13;20.33;;;;;;;5.02;62.64;102284.72;5550857;32;33770;-58
2022/01/13 16:33:00;;;;;;;31.35;19.40;;;;;;;5.17;65.81;102291.53;5565035;32;33542;-58
2022/01/13 16:36:02;;;;;;;31.40;19.00;;;;;;;5.13;62.34;102285.00;5559330;32;33320;-58
2022/01/13 16:39:04;;;;;;;28.95;19.25;;;;;;;5.30;65.07;102280.16;5570044;32;33901;-58
2022/01/13 16:42:08;;;;;;;32.47;19.23;;;;;;;5.40;71.42;102275.28;5558092;32;33654;-58
2022/01/13 16:45:16;;;;;;;30.33;19.40;;;;;;;5.24;61.95;102288.91;5557064;32;33987;-58
2022/01/13 16:48:20;;;;;;;33.30;20.42;;;;;;;5.28;61.84;102284.03;5563862;32;33695;-58
2022/01/13 16:51:22;;;;;;;30.95;19.85;;;;;;;5.24;62.82;102285.44;5561426;32;34307;-58
